^^
Datos históricos de la estación: Murcia-Puente Tocinos
Diario Informe para Junio 20, 2019 Unidades:  Ingés    Métrico   Ambas
Diario Semanal Mensual Anual
  Máxima: Mínima: Promedio:
Temperatura: 89.4 °F 75.9 °F 81.9 °F
Punto de rocio: 73.9 °F 68 °F 71.4 °F
Humedad: 89% 51.1% 72%
Velocidad viento: 14mph 0mph 5.4mph
Racha viento: 25.3mph - -
Viento- - Este
Presión: 30 in 29.9 in -
Precipitación: 0 in    
 
 
Tabla de datos para Junio 20, 2019
Hora Temperatura Punto de rocio Presión Viento Velocidad viento Racha viento Humedad Intensidad lluvia(por hora) Nubes
00:04 80.1 °F 73.8 °F 29.9 in NE 4 mph 7 mph 81% 0 in
00:09 80.1 °F 73.8 °F 29.9 in NE 3.9 mph 7 mph 81% 0 in
00:14 80.1 °F 73.8 °F 29.9 in NE 3.6 mph 6.9 mph 81% 0 in
00:19 80.1 °F 73.8 °F 29.9 in NNE 3.6 mph 7 mph 81% 0 in
00:24 80.1 °F 73.8 °F 29.9 in NNO 3.6 mph 5 mph 81.3% 0 in
00:29 80.1 °F 73.8 °F 29.9 in NNE 3.4 mph 5 mph 81.2% 0 in
00:34 79.9 °F 73.9 °F 29.9 in North 2.4 mph 5 mph 82% 0 in
00:39 79.9 °F 73.9 °F 29.9 in NNE 2.5 mph 5 mph 82% 0 in
00:44 79.9 °F 73.9 °F 29.9 in NE 2.9 mph 5.2 mph 82% 0 in
00:49 79.9 °F 73.8 °F 29.9 in NE 2.9 mph 5 mph 82% 0 in
00:54 79.7 °F 73.8 °F 29.9 in NNE 3.1 mph 5 mph 82% 0 in
00:59 79.7 °F 73.8 °F 29.9 in NE 2.9 mph 5.2 mph 82% 0 in
01:04 79.7 °F 73.6 °F 29.9 in NE 2.4 mph 5 mph 81.5% 0 in
01:09 79.7 °F 73.4 °F 29.9 in NE 2.4 mph 5 mph 81% 0 in
01:14 79.7 °F 73.4 °F 29.9 in ENE 2.4 mph 5 mph 81% 0 in
01:19 79.7 °F 73.4 °F 29.9 in NE 2.3 mph 5 mph 81% 0 in
01:24 79.9 °F 73.4 °F 29.9 in ENE 2 mph 5 mph 81% 0 in
01:29 79.7 °F 73.4 °F 29.9 in NE 2 mph 4.6 mph 81% 0 in
01:34 79.7 °F 73.2 °F 29.9 in NE 2 mph 5 mph 81% 0 in
01:39 79.7 °F 73.2 °F 29.9 in NE 2.1 mph 5 mph 81% 0 in
01:44 79.7 °F 73.2 °F 29.9 in NNE 2.4 mph 5 mph 81% 0 in
01:49 79.5 °F 73.2 °F 29.9 in NE 2.5 mph 5.2 mph 81% 0 in
01:54 79.5 °F 73.2 °F 29.9 in NE 2.9 mph 5.2 mph 81% 0 in
01:59 79.5 °F 73.2 °F 29.9 in NNE 3 mph 6.2 mph 81.3% 0 in
02:04 79.3 °F 73.4 °F 29.9 in NNE 3.6 mph 6 mph 82% 0 in
02:09 79.3 °F 73.4 °F 29.9 in NNE 3.4 mph 6 mph 82% 0 in
02:14 79.2 °F 73.2 °F 29.9 in NNE 2.9 mph 6 mph 82.1% 0 in
02:19 79.2 °F 73.6 °F 29.9 in NNE 2.8 mph 5 mph 83% 0 in
02:24 79.2 °F 73.6 °F 29.9 in NE 2.4 mph 5 mph 83% 0 in
02:29 79 °F 73.4 °F 29.9 in NE 2.4 mph 5 mph 83% 0 in
02:34 79 °F 73.4 °F 29.9 in NE 2.4 mph 5 mph 83% 0 in
02:39 79 °F 73.4 °F 29.9 in NE 2.5 mph 5 mph 83.2% 0 in
02:44 79 °F 73.8 °F 29.9 in NE 2.9 mph 5.8 mph 84% 0 in
02:49 78.8 °F 73.6 °F 29.9 in NE 2.9 mph 6 mph 84% 0 in
02:54 78.6 °F 73.4 °F 29.9 in NNE 2.9 mph 5 mph 84% 0 in
02:59 78.6 °F 73.6 °F 29.9 in NNE 2.6 mph 5 mph 84.8% 0 in
03:04 78.6 °F 73.8 °F 29.9 in NNO 1.8 mph 5 mph 85% 0 in
03:09 78.6 °F 73.8 °F 29.9 in NO 1.9 mph 5 mph 85% 0 in
03:14 78.6 °F 73.4 °F 29.9 in NO 2 mph 4 mph 84.2% 0 in
03:19 78.6 °F 73.4 °F 29.9 in NO 1.6 mph   84% 0 in
03:24 78.6 °F 73.6 °F 29.9 in Calm     84.6% 0 in
03:29 78.6 °F 73.8 °F 29.9 in Calm     85% 0 in
03:34 78.6 °F 73.8 °F 29.9 in Calm     85% 0 in
03:39 78.6 °F 73.8 °F 29.9 in Calm   3.1 mph 85% 0 in
03:44 78.6 °F 73.8 °F 29.9 in Calm   4.3 mph 85% 0 in
03:49 78.4 °F 73.6 °F 29.9 in ESE 0.6 mph 5 mph 85% 0 in
03:54 78.4 °F 73.6 °F 29.9 in Este 2.4 mph 5 mph 85% 0 in
03:59 78.3 °F 73.6 °F 29.9 in Este 2.5 mph 5 mph 85% 0 in
04:04 78.3 °F 73.6 °F 29.9 in ESE 3.1 mph 5 mph 85.6% 0 in
04:09 78.3 °F 73.6 °F 29.9 in ESE 3 mph 5 mph 85.7% 0 in
04:14 78.1 °F 73.4 °F 29.9 in ESE 2.4 mph 5 mph 85.8% 0 in
04:19 78.1 °F 73.6 °F 29.9 in ENE 2.3 mph 5 mph 86% 0 in
04:24 78.1 °F 73.4 °F 29.9 in NE 2 mph 5 mph 86% 0 in
04:29 77.9 °F 73.4 °F 29.9 in NE 2 mph 4 mph 86% 0 in
04:34 77.7 °F 73.2 °F 29.9 in NE 2 mph 3.5 mph 86% 0 in
04:39 77.7 °F 73.2 °F 29.9 in NE 2 mph 4.6 mph 86% 0 in
04:44 77.7 °F 73.2 °F 29.9 in NNE 2 mph 5 mph 86% 0 in
04:49 77.5 °F 73 °F 29.9 in NNE 2.1 mph 5 mph 86% 0 in
04:54 77.5 °F 73.4 °F 29.9 in NNE 2.4 mph 5 mph 87% 0 in
04:59 77.5 °F 73.4 °F 29.9 in NNE 2.2 mph 3.5 mph 87% 0 in
05:04 77.5 °F 73.4 °F 29.9 in North 1.8 mph 3.6 mph 87% 0 in
05:09 77.4 °F 73.2 °F 29.9 in NO 1.9 mph 4.6 mph 87% 0 in
05:14 77.4 °F 73.2 °F 29.9 in NO 2 mph 5 mph 87% 0 in
05:19 77.2 °F 73 °F 29.9 in NNO 1.9 mph 4.6 mph 87% 0 in
05:24 77.2 °F 73 °F 29.9 in NNO 1.8 mph 5 mph 87% 0 in
05:29 77.2 °F 73 °F 29.9 in NNO 1.4 mph 3 mph 87% 0 in
05:34 77.2 °F 73 °F 29.9 in Calm   3.6 mph 87% 0 in
05:39 77.2 °F 73 °F 29.9 in NNO 0.4 mph 4 mph 87% 0 in
05:44 77.2 °F 72.9 °F 29.9 in NNO 1.8 mph 4 mph 87% 0 in
05:49 77 °F 72.9 °F 29.9 in NNO 1.4 mph 3.1 mph 87% 0 in
05:54 77 °F 72.7 °F 29.9 in Calm   6.9 mph 87% 0 in
05:59 76.5 °F 72.3 °F 29.9 in ESE 1 mph 7 mph 87.1% 0 in
06:04 76.3 °F 72.5 °F 29.9 in ESE 4 mph 6 mph 88% 0 in
06:09 76.1 °F 72.3 °F 29.9 in ESE 3.7 mph 5 mph 88% 0 in
06:14 75.9 °F 72.1 °F 29.9 in ESE 2.4 mph 5 mph 88% 0 in
06:19 75.9 °F 72.3 °F 29.9 in ESE 1.9 mph 2 mph 88.9% 0 in
06:24 75.9 °F 72.5 °F 29.9 in Calm     89% 0 in
06:29 76.1 °F 72.5 °F 29.9 in Calm     89% 0 in
06:34 76.1 °F 72.7 °F 29.9 in Calm     89% 0 in
06:39 76.1 °F 72.7 °F 29.9 in Calm     89% 0 in
06:44 76.3 °F 72.9 °F 29.9 in Calm     89% 0 in
06:49 76.3 °F 72.9 °F 29.9 in Calm     88.9% 0 in
06:54 76.3 °F 72.7 °F 29.9 in Calm     88.6% 0 in
06:59 76.3 °F 72.9 °F 29.9 in Calm     89% 0 in
07:04 76.3 °F 72.5 °F 29.9 in Calm   3.5 mph 88.4% 0 in
07:09 76.1 °F 72.3 °F 29.9 in Calm   3 mph 88% 0 in
07:14 76.3 °F 72.5 °F 29.9 in Calm   2 mph 88% 0 in
07:19 76.3 °F 72.5 °F 29.9 in Calm     88% 0 in
07:24 76.3 °F 72.5 °F 29.9 in Calm   2 mph 88% 0 in
07:29 76.3 °F 72.5 °F 29.9 in Calm   3.6 mph 88% 0 in
07:34 76.5 °F 72.5 °F 29.9 in Calm   4.7 mph 87.6% 0 in
07:39 76.3 °F 72.1 °F 29.9 in Sur 0.6 mph 5 mph 87% 0 in
07:44 76.3 °F 72.1 °F 29.9 in SE 2.4 mph 5 mph 87% 0 in
07:49 76.5 °F 72.3 °F 29.9 in SE 2.2 mph 3.6 mph 87% 0 in
07:54 76.5 °F 72.3 °F 29.9 in SE 1.8 mph 4.6 mph 87% 0 in
07:59 76.6 °F 72.1 °F 29.9 in SSE 2 mph 5.2 mph 86.5% 0 in
08:04 76.6 °F 72.1 °F 29.9 in SE 2.4 mph 5 mph 86% 0 in
08:09 76.8 °F 72.1 °F 29.9 in SSE 2.5 mph 5 mph 85.3% 0 in
08:14 77 °F 72.1 °F 29.9 in SSE 2.9 mph 5 mph 85% 0 in
08:19 77.2 °F 72.3 °F 29.9 in SSO 2.7 mph 5 mph 85% 0 in
08:24 77.4 °F 72.1 °F 29.9 in SSO 2 mph 5 mph 84% 0 in
08:29 77.4 °F 72.1 °F 29.9 in SSO 2.2 mph 5 mph 84% 0 in
08:34 77.5 °F 72.3 °F 29.9 in Oeste 2.9 mph 5 mph 83.6% 0 in
08:39 77.9 °F 72.7 °F 29.9 in ONO 2.8 mph 5 mph 83.9% 0 in
08:44 78.1 °F 72.9 °F 29.9 in NO 2.4 mph 5 mph 84% 0 in
08:49 78.1 °F 72.9 °F 29.9 in ONO 2.5 mph 5 mph 84% 0 in
08:54 78.3 °F 72.9 °F 29.9 in Oeste 2.9 mph 5 mph 83.9% 0 in
08:59 78.3 °F 72.7 °F 29.9 in Oeste 2.9 mph 5.2 mph 83% 0 in
09:04 78.3 °F 72.7 °F 29.9 in OSO 2.9 mph 5 mph 83% 0 in
09:09 78.4 °F 72.9 °F 29.9 in Oeste 2.7 mph 5 mph 83% 0 in
09:14 78.6 °F 72.7 °F 29.9 in Oeste 2 mph 5 mph 82.1% 0 in
09:19 78.8 °F 72.9 °F 29.9 in OSO 2.2 mph 5.2 mph 82% 0 in
09:24 79 °F 72.9 °F 29.9 in OSO 3.1 mph 5 mph 82% 0 in
09:29 79.2 °F 73 °F 29.9 in Oeste 2.9 mph 5 mph 82% 0 in
09:34 79.3 °F 73 °F 29.9 in ONO 2.4 mph 4.6 mph 81.4% 0 in
09:39 79.7 °F 73.4 °F 29.9 in ONO 2.2 mph 5.9 mph 81.2% 0 in
09:44 80.1 °F 73 °F 29.9 in ONO 1.8 mph 6 mph 79.3% 0 in
09:49 80.2 °F 73 °F 29.9 in Oeste 1.9 mph 6 mph 78.7% 0 in
09:54 80.4 °F 73 °F 29.9 in SSO 2 mph 5 mph 78.3% 0 in
09:59 80.8 °F 73 °F 29.9 in Sur 2 mph 6.9 mph 77.5% 0 in
10:04 81 °F 73 °F 29.9 in SE 2 mph 7 mph 77% 0 in
10:09 81.1 °F 73.2 °F 29.9 in SSE 2.2 mph 5 mph 76.8% 0 in
10:14 81.5 °F 72.9 °F 29.9 in NE 3.1 mph 7.4 mph 75.4% 0 in
10:19 81.7 °F 72.7 °F 29.9 in ENE 3.2 mph 7 mph 74.2% 0 in
10:24 81.7 °F 72.3 °F 29.9 in ENE 3.6 mph 7 mph 73.4% 0 in
10:29 81.7 °F 72.7 °F 29.9 in ENE 3.7 mph 7 mph 74% 0 in
10:34 82 °F 72.5 °F 29.9 in ESE 4 mph 7 mph 73% 0 in
10:39 82.6 °F 72.9 °F 29.9 in ENE 3.8 mph 6 mph 72.8% 0 in
10:44 83.1 °F 72.7 °F 29.9 in ENE 2.9 mph 10.4 mph 70.9% 0 in
10:49 82.9 °F 72 °F 29.9 in Este 3.3 mph 10 mph 69.8% 0 in
10:54 83.1 °F 72 °F 29.9 in Este 4.7 mph 8.5 mph 69.4% 0 in
10:59 83.5 °F 72 °F 29.9 in ENE 4.5 mph 9 mph 68.4% 0 in
11:04 83.7 °F 71.4 °F 29.9 in Este 4 mph 7.4 mph 67% 0 in
11:09 83.7 °F 71.6 °F 29.9 in ENE 4.1 mph 7 mph 67.1% 0 in
11:14 84 °F 71.8 °F 29.9 in NNE 4.3 mph 7 mph 67% 0 in
11:19 84.4 °F 70.7 °F 29.9 in NE 4.4 mph 10.4 mph 63.7% 0 in
11:24 84.2 °F 70.2 °F 29.9 in NE 4.7 mph 10 mph 62.9% 0 in
11:29 84.4 °F 70 °F 29.9 in NE 4.8 mph 9.2 mph 62.2% 0 in
11:34 84.6 °F 70.2 °F 29.9 in North 5.2 mph 9 mph 62.1% 0 in
11:39 84.6 °F 70.5 °F 29.9 in NNE 5.1 mph 8.5 mph 63% 0 in
11:44 84.7 °F 70.2 °F 29.9 in NNE 4.7 mph 9.2 mph 61.7% 0 in
11:49 85.3 °F 69.8 °F 29.9 in ENE 4.6 mph 9 mph 60.1% 0 in
11:54 85.6 °F 70 °F 29.9 in ENE 4.3 mph 11.5 mph 59.8% 0 in
11:59 85.6 °F 69.8 °F 29.9 in ENE 4.7 mph 12 mph 59.1% 0 in
12:04 85.5 °F 69.6 °F 29.9 in NNE 5.9 mph 10 mph 59.4% 0 in
12:09 85.5 °F 69.6 °F 29.9 in NNO 5.5 mph 9 mph 59.5% 0 in
12:14 85.6 °F 69.8 °F 29.9 in SSE 4.3 mph 7.4 mph 59.3% 0 in
12:19 86.5 °F 69.3 °F 29.9 in NE 4 mph 7 mph 56.8% 0 in
12:24 87.1 °F 69.8 °F 29.9 in SO 3.1 mph 7 mph 56.7% 0 in
12:29 87.3 °F 70.2 °F 29.9 in NE 3.3 mph 10.4 mph 56.8% 0 in
12:34 87.4 °F 70.2 °F 29.9 in NE 4 mph 10 mph 56.6% 0 in
12:39 87.6 °F 69.3 °F 29.9 in NE 4 mph 9.2 mph 54.6% 0 in
12:44 87.6 °F 69.4 °F 29.9 in NNE 4 mph 10.4 mph 55.1% 0 in
12:49 87.3 °F 69.3 °F 29.9 in NNE 4.5 mph 10.7 mph 55.1% 0 in
12:54 87.1 °F 69.4 °F 29.9 in NNE 6.2 mph 11 mph 55.9% 0 in
12:59 87.4 °F 69.4 °F 29.9 in NNE 5.8 mph 11.2 mph 55.5% 0 in
13:04 87.4 °F 68.7 °F 29.9 in NE 4.7 mph 13 mph 53.9% 0 in
13:09 87.1 °F 68.4 °F 29.9 in NNE 4.8 mph 13 mph 54% 0 in
13:14 87.3 °F 68.5 °F 29.9 in ENE 5.4 mph 12.7 mph 54% 0 in
13:19 87.4 °F 68.7 °F 29.9 in NE 5.4 mph 13 mph 53.9% 0 in
13:24 87.4 °F 68.7 °F 29.9 in NE 5.4 mph 10.4 mph 53.9% 0 in
13:29 88 °F 68.4 °F 29.9 in NNE 5.5 mph 11.5 mph 52.4% 0 in
13:34 88 °F 68.2 °F 29.9 in North 5.9 mph 12 mph 52.2% 0 in
13:39 88.2 °F 68.7 °F 29.9 in North 5.5 mph 13 mph 52.7% 0 in
13:44 88.5 °F 68.5 °F 29.9 in NE 4.3 mph 14 mph 52.1% 0 in
13:49 88.3 °F 68 °F 29.9 in NNE 5.2 mph 14 mph 51.1% 0 in
13:54 88.3 °F 68 °F 29.9 in NNE 8.1 mph 12 mph 51.3% 0 in
13:59 88.3 °F 69.3 °F 29.9 in ENE 7.7 mph 15 mph 53.2% 0 in
14:04 88.3 °F 69.6 °F 29.9 in ENE 6.4 mph 15 mph 54% 0 in
14:09 88.3 °F 69.3 °F 29.9 in NE 6.6 mph 13 mph 53.4% 0 in
14:14 88.3 °F 68.9 °F 29.9 in NE 7.4 mph 13 mph 52.9% 0 in
14:19 88.3 °F 68.5 °F 29.9 in NE 7.3 mph 13 mph 51.9% 0 in
14:24 89.1 °F 68.9 °F 29.9 in NNE 6.9 mph 15.2 mph 51.8% 0 in
14:29 89.1 °F 70.2 °F 29.9 in NE 7 mph 17 mph 53.8% 0 in
14:34 89.1 °F 70 °F 29.9 in Este 7.4 mph 17 mph 53.5% 0 in
14:39 89.1 °F 70.2 °F 29.9 in NE 7.6 mph 15 mph 53.8% 0 in
14:44 88.9 °F 70 °F 29.9 in ENE 8.5 mph 16.1 mph 53.9% 0 in
14:49 88.9 °F 70 °F 29.9 in ENE 8.4 mph 17.5 mph 54% 0 in
14:54 88.5 °F 69.8 °F 29.9 in NE 8.1 mph 17 mph 54.1% 0 in
14:59 88.5 °F 69.8 °F 29.9 in NE 8.5 mph 16 mph 54% 0 in
15:04 88.3 °F 69.4 °F 29.9 in NE 9.7 mph 15.2 mph 53.7% 0 in
15:09 88.3 °F 69.6 °F 29.9 in NE 9.3 mph 15 mph 53.9% 0 in
15:14 88.5 °F 69.4 °F 29.9 in NE 7.6 mph 14 mph 53.2% 0 in
15:19 89.1 °F 69.6 °F 29.9 in NE 7.6 mph 12 mph 53% 0 in
15:24 88.9 °F 69.3 °F 29.9 in ENE 7.4 mph 12 mph 52.4% 0 in
15:29 89.1 °F 69.4 °F 29.9 in NE 7.1 mph 12.7 mph 52.6% 0 in
15:34 89.1 °F 69.6 °F 29.9 in NE 6.4 mph 15 mph 52.7% 0 in
15:39 89.1 °F 69.6 °F 29.9 in NE 6.9 mph 15.9 mph 53.1% 0 in
15:44 89.2 °F 69.6 °F 29.9 in ENE 8.7 mph 16.3 mph 52.4% 0 in
15:49 89.4 °F 69.6 °F 29.9 in ENE 8.7 mph 16.1 mph 52.4% 0 in
15:54 89.4 °F 69.8 °F 29.9 in ENE 8.7 mph 17.3 mph 52.7% 0 in
15:59 89.4 °F 69.6 °F 29.9 in ENE 9.1 mph 17.3 mph 52.2% 0 in
16:04 89.2 °F 69.8 °F 29.9 in ENE 10 mph 18.4 mph 52.8% 0 in
16:09 89.4 °F 69.8 °F 29.9 in NE 10.1 mph 19 mph 52.4% 0 in
16:14 89.4 °F 69.6 °F 29.9 in NE 10.7 mph 19 mph 52.5% 0 in
16:19 89.1 °F 69.4 °F 29.9 in NE 10.8 mph 21.3 mph 52.7% 0 in
16:24 88.5 °F 69.6 °F 29.9 in ENE 11.4 mph 21 mph 53.6% 0 in
16:29 88.7 °F 69.4 °F 29.9 in NE 11.4 mph 21.9 mph 53.1% 0 in
16:34 88.3 °F 69.3 °F 29.9 in NE 11.4 mph 22 mph 53.4% 0 in
16:39 88.2 °F 69.4 °F 29.9 in NE 11.6 mph 19.6 mph 53.9% 0 in
16:44 88.3 °F 69.1 °F 29.9 in NE 12.3 mph 20 mph 53.1% 0 in
16:49 88.2 °F 69.1 °F 29.9 in NE 12.2 mph 25.3 mph 53.5% 0 in
16:54 88.2 °F 69.3 °F 29.9 in NE 11.8 mph 25.3 mph 54% 0 in
16:59 87.6 °F 69.3 °F 29.9 in NE 12.4 mph 25 mph 54.5% 0 in
17:04 87.4 °F 69.6 °F 29.9 in NE 14 mph 21 mph 55.7% 0 in
17:09 87.3 °F 69.6 °F 29.9 in NE 13.7 mph 23 mph 56% 0 in
17:14 87.3 °F 70.2 °F 29.9 in NE 12.5 mph 25.3 mph 57% 0 in
17:19 87.3 °F 70.2 °F 29.9 in ENE 12.2 mph 25.3 mph 57% 0 in
17:24 87.3 °F 70.2 °F 29.9 in NE 11.4 mph 21.9 mph 57% 0 in
17:29 87.3 °F 70.2 °F 29.9 in ENE 11.4 mph 22.3 mph 57% 0 in
17:34 86.7 °F 70.2 °F 29.9 in ENE 11.4 mph 22 mph 57.9% 0 in
17:39 86.5 °F 70.5 °F 29.9 in ENE 11.1 mph 19 mph 58.9% 0 in
17:44 86.7 °F 70.5 °F 29.9 in ENE 10.2 mph 17 mph 58.9% 0 in
17:49 86.7 °F 70.3 °F 29.9 in ENE 10.3 mph 23.5 mph 58.2% 0 in
17:54 86.2 °F 70.2 °F 29.9 in NE 10.7 mph 23 mph 59.1% 0 in
17:59 86 °F 70.2 °F 29.9 in NE 11.2 mph 22 mph 59.3% 0 in
18:04 85.8 °F 70 °F 29.9 in NE 13 mph 25.3 mph 59.3% 0 in
18:09 85.5 °F 70 °F 29.9 in ENE 13.1 mph 25 mph 60% 0 in
18:14 85.3 °F 69.8 °F 29.9 in NE 13.5 mph 24 mph 60.1% 0 in
18:19 84.7 °F 70 °F 29.9 in NE 12.9 mph 24.2 mph 61.1% 0 in
18:24 84.7 °F 70.2 °F 29.9 in ENE 10.7 mph 24 mph 62% 0 in
18:29 84.7 °F 70 °F 29.9 in NE 10.4 mph 20 mph 61.4% 0 in
18:34 84.7 °F 70 °F 29.9 in ENE 8.7 mph 17 mph 61.3% 0 in
18:39 84.6 °F 70.2 °F 29.9 in NE 8.6 mph 16 mph 62% 0 in
18:44 84.4 °F 70 °F 29.9 in ENE 8.5 mph 20.7 mph 62% 0 in
18:49 84.4 °F 70.2 °F 30 in ENE 8.5 mph 21 mph 62.5% 0 in
18:54 84.2 °F 70.3 °F 30 in ENE 8.7 mph 18.4 mph 63.2% 0 in
18:59 84 °F 70.2 °F 30 in Este 9 mph 20.7 mph 63.2% 0 in
19:04 83.8 °F 70.3 °F 30 in ENE 10 mph 21 mph 64% 0 in
19:09 84.2 °F 70.5 °F 30 in ENE 9.7 mph 17 mph 63.8% 0 in
19:14 84.4 °F 70.3 °F 30 in ENE 8.5 mph 24.6 mph 63% 0 in
19:19 84 °F 70.3 °F 30 in ENE 8.9 mph 25 mph 63.5% 0 in
19:24 83.8 °F 70.7 °F 30 in ENE 10.2 mph 18.4 mph 64.9% 0 in
19:29 83.7 °F 70.7 °F 30 in ENE 10.3 mph 18.4 mph 65.4% 0 in
19:34 83.5 °F 71.1 °F 30 in NE 10.7 mph 18 mph 66.3% 0 in
19:39 83.1 °F 71.1 °F 30 in NE 10.6 mph 19.7 mph 67.1% 0 in
19:44 82.9 °F 71.2 °F 30 in NE 10 mph 20 mph 68% 0 in
19:49 82.9 °F 71.6 °F 30 in NE 9.8 mph 14.7 mph 68.8% 0 in
19:54 82.9 °F 71.8 °F 30 in NE 9.2 mph 20.8 mph 69.4% 0 in
19:59 82.8 °F 72.1 °F 30 in NE 9.7 mph 21 mph 70.6% 0 in
20:04 82.2 °F 71.8 °F 30 in NE 11.2 mph 21 mph 70.7% 0 in
20:09 82.2 °F 71.4 °F 30 in NE 10.6 mph 18 mph 70% 0 in
20:14 82.2 °F 71.4 °F 30 in NE 8.7 mph 17.8 mph 70% 0 in
20:19 82 °F 71.2 °F 30 in ENE 8.9 mph 18.4 mph 70% 0 in
20:24 81.9 °F 71.1 °F 30 in NE 9.7 mph 17.5 mph 69.8% 0 in
20:29 81.9 °F 70.9 °F 30 in NE 9.6 mph 18.5 mph 69.4% 0 in
20:34 81.7 °F 70.7 °F 30 in NE 9.2 mph 19 mph 69.6% 0 in
20:39 81.7 °F 70.7 °F 30 in NE 9.4 mph 18.4 mph 69.4% 0 in
20:44 81.7 °F 70.5 °F 30 in NE 10 mph 19.7 mph 69.1% 0 in
20:49 81.3 °F 70.5 °F 30 in NE 10.3 mph 20 mph 69.5% 0 in
20:54 81.1 °F 70.5 °F 30 in NE 11.4 mph 20.7 mph 70.3% 0 in
20:59 81.1 °F 70.7 °F 30 in NE 11.4 mph 21 mph 71% 0 in
21:04 81 °F 70.7 °F 30 in NE 11.4 mph 20 mph 71% 0 in
21:09 81 °F 70.7 °F 30 in NE 11.4 mph 21.5 mph 71% 0 in
21:14 81 °F 70.7 °F 30 in NE 11.2 mph 22 mph 71% 0 in
21:19 80.8 °F 70.3 °F 30 in NE 11.4 mph 22 mph 70.4% 0 in
21:24 80.8 °F 70.2 °F 30 in NE 11.8 mph 22 mph 70% 0 in
21:29 80.8 °F 70.2 °F 30 in NE 11.4 mph 18 mph 70% 0 in
21:34 80.8 °F 70.2 °F 30 in NE 10 mph 16 mph 70% 0 in
21:39 80.8 °F 70.2 °F 30 in NE 9.8 mph 16.1 mph 70% 0 in
21:44 80.8 °F 70.2 °F 30 in NE 9.2 mph 16 mph 70% 0 in
21:49 80.8 °F 70 °F 30 in NE 8.8 mph 15 mph 70% 0 in
21:54 80.6 °F 70 °F 30 in NE 7.6 mph 15 mph 70% 0 in
21:59 80.6 °F 70 °F 30 in NE 7.5 mph 14 mph 70% 0 in
22:04 80.6 °F 69.8 °F 30 in NE 6.9 mph 17.8 mph 70% 0 in
22:09 80.4 °F 69.6 °F 30 in NNE 7.1 mph 18.4 mph 70% 0 in
22:14 80.4 °F 69.8 °F 30 in NE 7.6 mph 14 mph 70.3% 0 in
22:19 80.4 °F 70.2 °F 30 in NNE 7.3 mph 14 mph 71% 0 in
22:24 80.2 °F 70.2 °F 30 in NE 5.9 mph 10 mph 71% 0 in
22:29 80.2 °F 70 °F 30 in NE 5.9 mph 12.7 mph 71% 0 in
22:34 80.1 °F 70.2 °F 30 in NE 5.9 mph 13.8 mph 71.9% 0 in
22:39 80.1 °F 70.2 °F 30 in NE 6.3 mph 14 mph 72% 0 in
22:44 79.9 °F 70 °F 30 in NE 7.6 mph 12.5 mph 72.1% 0 in
22:49 79.9 °F 70.3 °F 30 in NE 7.6 mph 14.5 mph 73% 0 in
22:54 79.9 °F 70.3 °F 30 in NE 7.4 mph 15 mph 73% 0 in
22:59 79.9 °F 70.3 °F 30 in NE 7.5 mph 14 mph 73% 0 in
23:04 79.7 °F 70.5 °F 30 in NNE 7.6 mph 12 mph 73.8% 0 in
23:09 79.5 °F 70.2 °F 30 in NNO 7.1 mph 11 mph 73.4% 0 in
23:14 79.5 °F 70.2 °F 30 in NO 5.4 mph 7.6 mph 73.3% 0 in
23:19 79.3 °F 70.2 °F 30 in NO 5.2 mph 8.1 mph 73.9% 0 in
23:24 79.2 °F 70.2 °F 30 in NO 4.3 mph 9.7 mph 74% 0 in
23:29 78.8 °F 69.8 °F 30 in NO 4.5 mph 11.5 mph 74% 0 in
23:34 78.4 °F 69.6 °F 30 in NO 5.4 mph 12 mph 74% 0 in
23:39 78.4 °F 69.4 °F 30 in NO 5.4 mph 10.4 mph 74% 0 in
23:44 78.4 °F 69.4 °F 30 in NNO 5.4 mph 9 mph 74% 0 in
23:49 78.4 °F 69.4 °F 30 in NO 5 mph 6.2 mph 74% 0 in
23:54 78.4 °F 69.4 °F 30 in NO 3.6 mph 6 mph 74% 0 in
23:59 78.4 °F 69.6 °F 30 in NO 3.3 mph 5 mph 74% 0 in
Murcia-Puente Tocinos, España
Compliments of Weather Underground - 2.75 mb

La estación de MeteoMurcia.com, publica sus datos en los siguientes proyectos:

Weather Underground PWS IMURCIAP2 Meteoclimatic www.awekas.at

W3Counter
Web Analytics